createdAt,value
2017-05-03T00:01:36.798Z,81.80
2017-05-03T00:04:04.548Z,81.90
2017-05-03T00:06:31.607Z,82.20
2017-05-03T00:08:59.785Z,81.80
2017-05-03T00:11:26.773Z,82.60
2017-05-03T00:13:53.792Z,82.10
2017-05-03T00:16:21.936Z,82.00
2017-05-03T00:18:48.937Z,81.70
2017-05-03T00:21:15.960Z,82.10
2017-05-03T00:23:43.990Z,82.30
2017-05-03T00:26:11.016Z,81.30
2017-05-03T00:28:38.012Z,82.00
2017-05-03T00:31:05.472Z,81.90
2017-05-03T00:33:32.453Z,82.10
2017-05-03T00:35:59.459Z,82.60
2017-05-03T00:38:26.920Z,81.90
2017-05-03T00:40:53.949Z,82.30
2017-05-03T00:43:20.984Z,82.40
2017-05-03T00:45:48.348Z,82.70
2017-05-03T00:48:15.367Z,82.70
2017-05-03T00:50:42.349Z,82.40
2017-05-03T00:53:09.693Z,82.30
2017-05-03T00:55:36.697Z,82.40
2017-05-03T00:58:04.484Z,82.20
2017-05-03T01:00:31.783Z,82.00
2017-05-03T01:02:58.794Z,82.10
2017-05-03T01:05:25.810Z,82.20
2017-05-03T01:07:54.449Z,82.20
2017-05-03T01:10:21.443Z,82.00
2017-05-03T01:12:49.174Z,82.10
2017-05-03T01:15:16.541Z,82.00
2017-05-03T01:17:43.523Z,81.80
2017-05-03T01:20:10.532Z,82.10
2017-05-03T01:22:37.982Z,82.00
2017-05-03T01:25:05.746Z,82.80
2017-05-03T01:27:32.809Z,82.00
2017-05-03T01:30:00.129Z,82.10
2017-05-03T01:32:27.161Z,81.60
2017-05-03T01:34:54.144Z,81.50
2017-05-03T01:37:21.421Z,81.80
2017-05-03T01:39:48.428Z,81.70
2017-05-03T01:42:15.425Z,81.70
2017-05-03T01:44:43.544Z,81.90
2017-05-03T01:47:10.528Z,81.80
2017-05-03T01:49:37.544Z,81.80
2017-05-03T01:52:04.891Z,81.40
2017-05-03T01:54:31.958Z,81.40
2017-05-03T01:56:59.108Z,81.20
2017-05-03T01:59:26.559Z,81.30
2017-05-03T02:01:53.565Z,81.70
2017-05-03T02:04:20.606Z,81.30
2017-05-03T02:06:48.539Z,81.00
2017-05-03T02:09:15.524Z,81.20
2017-05-03T02:11:43.278Z,81.30
2017-05-03T02:14:11.393Z,81.20
2017-05-03T02:16:38.400Z,80.80
2017-05-03T02:19:06.128Z,81.10
2017-05-03T02:21:33.560Z,81.20
2017-05-03T02:24:00.556Z,81.10
2017-05-03T02:26:28.357Z,80.60
2017-05-03T02:28:55.745Z,80.80
2017-05-03T02:31:22.724Z,80.60
2017-05-03T02:33:49.708Z,80.50
2017-05-03T02:36:17.207Z,80.20
2017-05-03T02:38:44.210Z,80.20
2017-05-03T02:41:11.189Z,80.20
2017-05-03T02:43:38.704Z,80.20
2017-05-03T02:46:06.435Z,80.70
2017-05-03T02:48:34.192Z,80.60
2017-05-03T02:51:01.640Z,80.40
2017-05-03T02:53:28.656Z,80.30
2017-05-03T02:55:55.691Z,80.10
2017-05-03T02:58:23.124Z,80.10
2017-05-03T03:00:50.132Z,80.50
2017-05-03T03:03:17.164Z,80.40
2017-05-03T03:05:44.448Z,80.30
2017-05-03T03:08:11.442Z,79.90
2017-05-03T03:10:38.440Z,80.00
2017-05-03T03:13:05.880Z,80.00
2017-05-03T03:15:32.864Z,80.70
2017-05-03T03:18:00.632Z,80.60
2017-05-03T03:20:28.753Z,80.10
2017-05-03T03:22:55.786Z,79.70
2017-05-03T03:25:22.762Z,79.80
2017-05-03T03:27:50.333Z,79.70
2017-05-03T03:30:17.347Z,79.50
2017-05-03T03:32:44.332Z,79.80
2017-05-03T03:35:11.661Z,80.20
2017-05-03T03:37:38.676Z,80.00
2017-05-03T03:40:05.672Z,79.60
2017-05-03T03:42:33.026Z,79.60
2017-05-03T03:45:00.021Z,80.00
2017-05-03T03:47:27.097Z,80.00
2017-05-03T03:49:54.464Z,80.00
2017-05-03T03:52:22.352Z,79.90
2017-05-03T03:54:50.138Z,79.40
2017-05-03T03:57:18.164Z,79.50
2017-05-03T03:59:45.149Z,79.70
2017-05-03T04:02:12.180Z,79.50
2017-05-03T04:04:39.546Z,79.80
2017-05-03T04:07:06.540Z,79.90
2017-05-03T04:09:33.559Z,79.30
2017-05-03T04:12:01.001Z,79.40
2017-05-03T04:14:28.022Z,79.90
2017-05-03T04:16:55.070Z,79.80
2017-05-03T04:19:22.535Z,79.60
2017-05-03T04:21:49.579Z,79.90
2017-05-03T04:24:16.600Z,79.50
2017-05-03T04:26:44.000Z,79.50
2017-05-03T04:29:11.140Z,79.20
2017-05-03T04:31:38.320Z,78.90
2017-05-03T04:34:06.710Z,77.90
2017-05-03T04:36:33.842Z,78.30
2017-05-03T04:39:00.940Z,79.20
2017-05-03T04:41:28.442Z,79.30
2017-05-03T04:43:55.620Z,79.00
2017-05-03T04:46:22.753Z,78.50
2017-05-03T04:48:50.171Z,78.60
2017-05-03T04:51:17.275Z,78.30
2017-05-03T04:53:44.389Z,77.80
2017-05-03T04:56:11.764Z,78.20
2017-05-03T04:58:38.861Z,78.30
2017-05-03T05:01:06.752Z,78.40
2017-05-03T05:03:35.031Z,78.00
2017-05-03T05:06:02.163Z,78.30
2017-05-03T05:08:29.308Z,78.20
2017-05-03T05:10:57.515Z,78.40
2017-05-03T05:13:24.712Z,79.10
2017-05-03T05:15:51.779Z,79.60
2017-05-03T05:18:19.172Z,79.60
2017-05-03T05:20:47.034Z,79.50
2017-05-03T05:23:14.801Z,79.50
2017-05-03T05:25:42.267Z,79.50
2017-05-03T05:28:10.033Z,79.30
2017-05-03T05:30:37.835Z,79.10
2017-05-03T05:33:05.205Z,79.40
2017-05-03T05:35:32.246Z,77.70
2017-05-03T05:37:59.330Z,77.50
2017-05-03T05:40:26.692Z,78.90
2017-05-03T05:42:53.748Z,77.20
2017-05-03T05:45:22.109Z,77.20
2017-05-03T05:47:50.240Z,77.10
2017-05-03T05:50:17.269Z,77.20
2017-05-03T05:52:44.314Z,76.60
2017-05-03T05:55:11.846Z,76.90
2017-05-03T05:57:38.927Z,77.00
2017-05-03T06:00:06.051Z,77.00
2017-05-03T06:02:34.191Z,77.20
2017-05-03T06:05:03.597Z,77.90
2017-05-03T06:07:30.929Z,77.10
2017-05-03T06:09:58.445Z,77.10
2017-05-03T06:12:25.595Z,76.90
2017-05-03T06:14:53.916Z,77.00
2017-05-03T06:17:21.464Z,76.90
2017-05-03T06:19:48.523Z,76.70
2017-05-03T06:22:16.292Z,76.70
2017-05-03T06:24:44.479Z,77.20
2017-05-03T06:27:11.523Z,76.90
2017-05-03T06:29:39.280Z,76.90
2017-05-03T06:32:06.656Z,76.70
2017-05-03T06:34:34.411Z,76.80
2017-05-03T06:37:01.450Z,76.80
2017-05-03T06:39:29.627Z,76.80
2017-05-03T06:41:57.373Z,76.10
2017-05-03T06:44:25.329Z,76.70
2017-05-03T06:46:52.843Z,76.20
2017-05-03T06:49:19.911Z,75.20
2017-05-03T06:51:46.940Z,74.20
2017-05-03T06:54:14.529Z,75.40
2017-05-03T06:56:41.552Z,74.50
2017-05-03T06:59:08.556Z,74.80
2017-05-03T07:01:36.709Z,73.50
2017-05-03T07:04:03.794Z,73.30
2017-05-03T07:06:30.813Z,73.50
2017-05-03T07:08:59.157Z,72.40
2017-05-03T07:11:26.958Z,72.70
2017-05-03T07:13:54.708Z,72.40
2017-05-03T07:16:22.149Z,72.10
2017-05-03T07:18:49.966Z,72.10
2017-05-03T07:21:16.976Z,72.30
2017-05-03T07:23:44.499Z,72.30
2017-05-03T07:26:11.533Z,70.70
2017-05-03T07:28:38.575Z,71.10
2017-05-03T07:31:05.964Z,71.10
2017-05-03T07:33:33.012Z,72.00
2017-05-03T07:36:00.079Z,71.40
2017-05-03T07:38:27.605Z,70.30
2017-05-03T07:40:54.632Z,70.80
2017-05-03T07:43:21.694Z,70.80
2017-05-03T07:45:49.621Z,69.60
2017-05-03T07:48:16.645Z,69.80
2017-05-03T07:50:43.720Z,69.20
2017-05-03T07:53:11.152Z,68.70
2017-05-03T07:55:38.208Z,68.00
2017-05-03T07:58:05.261Z,67.80
2017-05-03T08:00:32.620Z,67.90
2017-05-03T08:02:59.657Z,67.00
2017-05-03T08:05:26.728Z,67.00
2017-05-03T08:07:54.186Z,67.40
2017-05-03T08:10:21.208Z,67.10
2017-05-03T08:12:48.250Z,67.20
2017-05-03T08:15:15.590Z,68.10
2017-05-03T08:17:42.606Z,68.10
2017-05-03T08:20:09.622Z,67.90
2017-05-03T08:22:37.780Z,66.60
2017-05-03T08:25:04.815Z,66.80
2017-05-03T08:27:31.876Z,66.60
2017-05-03T08:29:59.338Z,66.60
2017-05-03T08:32:27.121Z,66.30
2017-05-03T08:34:54.856Z,66.40
2017-05-03T08:37:22.305Z,66.60
2017-05-03T08:39:50.111Z,65.90
2017-05-03T08:42:17.899Z,65.50
2017-05-03T08:44:45.337Z,65.10
2017-05-03T08:47:12.396Z,64.90
2017-05-03T08:49:39.477Z,65.60
2017-05-03T08:52:06.851Z,64.70
2017-05-03T08:54:33.899Z,64.20
2017-05-03T08:57:00.954Z,63.80
2017-05-03T08:59:28.497Z,64.40
2017-05-03T09:01:55.566Z,63.80
2017-05-03T09:04:22.606Z,64.80
2017-05-03T09:06:50.276Z,63.90
2017-05-03T09:09:17.319Z,63.90
2017-05-03T09:11:44.364Z,63.90
2017-05-03T09:14:11.797Z,63.40
2017-05-03T09:16:38.808Z,62.50
2017-05-03T09:19:05.814Z,63.10
2017-05-03T09:21:33.348Z,61.60
2017-05-03T09:24:00.416Z,61.70
2017-05-03T09:26:27.473Z,61.70
2017-05-03T09:28:54.864Z,61.60
2017-05-03T09:31:21.955Z,62.80
2017-05-03T09:33:48.989Z,62.30
2017-05-03T09:36:17.139Z,60.30
2017-05-03T09:38:44.166Z,59.10
2017-05-03T09:41:11.216Z,59.60
2017-05-03T09:43:38.586Z,59.30
2017-05-03T09:46:05.604Z,60.00
2017-05-03T09:48:32.649Z,58.20
2017-05-03T09:51:00.022Z,58.40
2017-05-03T09:53:27.818Z,58.90
2017-05-03T09:55:54.864Z,58.30
2017-05-03T09:58:22.282Z,58.60
2017-05-03T10:00:50.101Z,59.90
2017-05-03T10:03:17.135Z,58.90
2017-05-03T10:05:44.559Z,59.20
2017-05-03T10:08:12.344Z,59.30
2017-05-03T10:10:39.370Z,58.50
2017-05-03T10:13:07.497Z,58.30
2017-05-03T10:15:34.535Z,58.40
2017-05-03T10:18:01.546Z,58.50
2017-05-03T10:20:28.999Z,58.60
2017-05-03T10:22:56.060Z,58.20
2017-05-03T10:25:23.111Z,59.00
2017-05-03T10:27:50.527Z,59.20
2017-05-03T10:30:17.530Z,59.40
2017-05-03T10:32:44.560Z,59.00
2017-05-03T10:35:11.936Z,58.80
2017-05-03T10:37:38.997Z,58.70
2017-05-03T10:40:06.792Z,59.10
2017-05-03T10:42:34.196Z,58.20
2017-05-03T10:45:01.224Z,58.40
2017-05-03T10:47:28.240Z,58.20
2017-05-03T10:49:56.360Z,58.10
2017-05-03T10:52:23.411Z,57.30
2017-05-03T10:54:50.396Z,57.40
2017-05-03T10:57:17.841Z,57.00
2017-05-03T10:59:51.852Z,57.40
2017-05-03T11:02:19.219Z,57.70
2017-05-03T11:04:46.267Z,55.90
2017-05-03T11:07:13.303Z,56.90
2017-05-03T11:09:40.769Z,57.10
2017-05-03T11:12:07.823Z,56.70
2017-05-03T11:14:34.871Z,57.50
2017-05-03T11:17:02.282Z,56.90
2017-05-03T11:19:29.344Z,55.50
2017-05-03T11:21:56.367Z,55.00
2017-05-03T11:24:23.915Z,55.20
2017-05-03T11:26:51.148Z,55.30
2017-05-03T11:29:18.205Z,53.50
2017-05-03T11:31:45.565Z,54.80
2017-05-03T11:34:12.562Z,53.60
2017-05-03T11:36:39.591Z,54.00
2017-05-03T11:39:06.958Z,52.90
2017-05-03T11:41:33.996Z,52.90
2017-05-03T11:44:01.021Z,52.40
2017-05-03T11:46:29.169Z,51.20
2017-05-03T11:48:56.175Z,51.60
2017-05-03T11:51:23.200Z,53.60
2017-05-03T11:53:50.567Z,53.40
2017-05-03T11:56:17.596Z,53.60
2017-05-03T11:58:44.695Z,53.60
2017-05-03T12:01:12.035Z,54.00
2017-05-03T12:03:39.880Z,53.70
2017-05-03T12:06:06.911Z,52.10
2017-05-03T12:08:34.301Z,52.90
2017-05-03T12:11:01.336Z,52.70
2017-05-03T12:13:28.352Z,52.20
2017-05-03T12:15:55.752Z,51.80
2017-05-03T12:18:22.798Z,51.80
2017-05-03T12:20:50.609Z,52.70
2017-05-03T12:23:17.949Z,53.30
2017-05-03T12:25:44.981Z,53.30
2017-05-03T12:28:12.742Z,51.10
2017-05-03T12:30:40.946Z,51.60
2017-05-03T12:33:07.947Z,52.50
2017-05-03T12:35:34.971Z,52.20
2017-05-03T12:38:02.263Z,53.30
2017-05-03T12:40:29.273Z,53.70
2017-05-03T12:42:56.333Z,53.80
2017-05-03T12:45:23.692Z,53.30
2017-05-03T12:47:50.698Z,53.80
2017-05-03T12:50:17.706Z,53.50
2017-05-03T12:52:45.108Z,53.70
2017-05-03T12:55:12.149Z,53.20
2017-05-03T12:57:39.160Z,53.20
2017-05-03T13:00:06.667Z,53.00
2017-05-03T13:02:33.684Z,54.00
2017-05-03T13:05:00.753Z,53.40
2017-05-03T13:07:28.110Z,54.30
2017-05-03T13:09:55.116Z,54.10
2017-05-03T13:12:22.136Z,54.30
2017-05-03T13:14:49.532Z,55.30
2017-05-03T13:17:16.561Z,55.30
2017-05-03T13:19:43.589Z,55.20
2017-05-03T13:22:10.980Z,54.20
2017-05-03T13:24:37.976Z,53.80
2017-05-03T13:27:04.977Z,53.20
2017-05-03T13:29:33.169Z,53.00
2017-05-03T13:32:00.195Z,52.50
2017-05-03T13:34:27.222Z,51.50
2017-05-03T13:36:54.674Z,51.40
2017-05-03T13:39:21.718Z,51.50
2017-05-03T13:41:48.781Z,52.20
2017-05-03T13:44:16.543Z,52.20
2017-05-03T13:46:43.580Z,51.60
2017-05-03T13:49:10.569Z,50.30
2017-05-03T13:51:37.978Z,49.00
2017-05-03T13:54:04.996Z,49.60
2017-05-03T13:56:32.039Z,50.30
2017-05-03T13:58:59.432Z,49.60
2017-05-03T14:01:27.237Z,49.50
2017-05-03T14:03:54.263Z,51.80
2017-05-03T14:06:22.408Z,53.10
2017-05-03T14:08:49.469Z,54.80
2017-05-03T14:11:16.546Z,55.00
2017-05-03T14:13:43.967Z,55.20
2017-05-03T14:16:10.980Z,54.10
2017-05-03T14:18:38.022Z,53.50
2017-05-03T14:21:05.393Z,53.10
2017-05-03T14:23:33.161Z,52.20
2017-05-03T14:26:00.210Z,51.80
2017-05-03T14:28:28.468Z,50.20
2017-05-03T14:30:55.519Z,50.70
2017-05-03T14:33:22.562Z,51.20
2017-05-03T14:35:49.904Z,51.40
2017-05-03T14:38:16.938Z,52.40
2017-05-03T14:40:44.012Z,52.50
2017-05-03T14:43:11.368Z,52.00
2017-05-03T14:45:38.394Z,51.90
2017-05-03T14:48:05.405Z,52.10
2017-05-03T14:50:32.915Z,51.90
2017-05-03T14:52:59.917Z,52.30
2017-05-03T14:55:26.965Z,52.40
2017-05-03T14:57:54.337Z,50.80
2017-05-03T15:00:21.380Z,49.10
2017-05-03T15:02:48.416Z,50.30
2017-05-03T15:05:15.789Z,51.50
2017-05-03T15:07:42.770Z,51.00
2017-05-03T15:10:09.826Z,51.50
2017-05-03T15:12:37.256Z,50.90
2017-05-03T15:15:05.012Z,49.70
2017-05-03T15:17:32.764Z,49.40
2017-05-03T15:20:00.929Z,49.90
2017-05-03T15:22:27.915Z,46.00
2017-05-03T15:24:54.921Z,42.20
2017-05-03T15:27:22.261Z,37.90
2017-05-03T15:29:49.270Z,33.30
2017-05-03T15:32:16.310Z,32.50
2017-05-03T15:34:43.620Z,31.80
2017-05-03T15:37:10.680Z,34.80
2017-05-03T15:39:38.466Z,37.40
2017-05-03T15:42:06.061Z,37.70
2017-05-03T15:44:33.151Z,39.30
2017-05-03T15:47:00.204Z,40.00
2017-05-03T15:49:27.756Z,41.40
2017-05-03T15:51:54.829Z,42.40
2017-05-03T15:54:21.857Z,41.60
2017-05-03T15:56:49.277Z,42.00
2017-05-03T15:59:16.278Z,41.40
2017-05-03T16:01:43.309Z,41.70
2017-05-03T16:04:10.871Z,42.50
2017-05-03T16:06:37.887Z,44.10
2017-05-03T16:09:04.940Z,43.90
2017-05-03T16:11:32.468Z,44.50
2017-05-03T16:13:59.480Z,45.20
2017-05-03T16:16:26.601Z,44.80
2017-05-03T16:18:54.034Z,45.40
2017-05-03T16:21:21.771Z,45.30
2017-05-03T16:23:48.879Z,44.80
2017-05-03T16:26:16.279Z,44.80
2017-05-03T16:28:44.144Z,44.40
2017-05-03T16:31:11.917Z,44.80
2017-05-03T16:33:40.083Z,42.90
2017-05-03T16:36:07.882Z,42.80
2017-05-03T16:38:34.907Z,41.80
2017-05-03T16:41:02.353Z,40.80
2017-05-03T16:43:30.104Z,41.20
2017-05-03T16:45:57.131Z,42.40
2017-05-03T16:48:24.483Z,42.90
2017-05-03T16:50:52.166Z,43.10
2017-05-03T16:53:19.149Z,43.70
2017-05-03T16:55:46.661Z,44.00
2017-05-03T16:58:14.475Z,43.20
2017-05-03T17:00:41.474Z,43.60
2017-05-03T17:03:09.628Z,44.70
2017-05-03T17:05:36.664Z,44.80
2017-05-03T17:08:03.673Z,45.50
2017-05-03T17:10:31.069Z,45.90
2017-05-03T17:12:58.075Z,46.30
2017-05-03T17:15:25.111Z,46.50
2017-05-03T17:17:52.671Z,46.00
2017-05-03T17:20:19.977Z,46.10
2017-05-03T17:22:47.803Z,45.40
2017-05-03T17:25:15.166Z,46.00
2017-05-03T17:27:42.237Z,46.10
2017-05-03T17:30:16.602Z,46.80
2017-05-03T17:32:43.703Z,46.70
2017-05-03T17:35:11.564Z,47.20
2017-05-03T17:37:39.669Z,46.20
2017-05-03T17:40:06.717Z,47.20
2017-05-03T17:42:33.809Z,46.50
2017-05-03T17:45:01.951Z,47.10
2017-05-03T17:47:28.999Z,47.50
2017-05-03T17:49:56.086Z,45.90
2017-05-03T17:52:24.186Z,46.50
2017-05-03T17:54:51.264Z,47.20
2017-05-03T17:57:18.342Z,47.00
2017-05-03T17:59:49.833Z,47.40
2017-05-03T18:02:18.331Z,47.70
2017-05-03T18:04:45.405Z,47.90
2017-05-03T18:07:12.910Z,48.60
2017-05-03T18:09:39.995Z,49.20
2017-05-03T18:12:07.076Z,48.60
2017-05-03T18:14:35.954Z,48.40
2017-05-03T18:17:03.029Z,48.70
2017-05-03T18:19:30.054Z,49.20
2017-05-03T18:21:58.145Z,49.00
2017-05-03T18:24:25.192Z,48.80
2017-05-03T18:26:52.604Z,49.10
2017-05-03T18:29:20.779Z,49.00
2017-05-03T18:31:48.567Z,49.20
2017-05-03T18:34:15.625Z,49.30
2017-05-03T18:36:42.998Z,48.60
2017-05-03T18:39:10.073Z,48.50
2017-05-03T18:41:37.238Z,49.00
2017-05-03T18:44:04.705Z,48.60
2017-05-03T18:46:32.521Z,48.60
2017-05-03T18:48:59.569Z,48.10
2017-05-03T18:51:26.966Z,48.00
2017-05-03T18:53:54.765Z,48.30
2017-05-03T18:56:29.260Z,47.90
2017-05-03T18:58:57.063Z,47.90
2017-05-03T19:01:24.136Z,48.50
2017-05-03T19:03:52.329Z,48.50
2017-05-03T19:06:20.182Z,48.50
2017-05-03T19:08:47.953Z,48.80
2017-05-03T19:11:15.430Z,48.10
2017-05-03T19:13:42.450Z,48.20
2017-05-03T19:16:10.264Z,48.00
2017-05-03T19:18:37.672Z,48.30
2017-05-03T19:21:04.723Z,49.00
2017-05-03T19:23:32.476Z,48.50
2017-05-03T19:25:59.815Z,48.40
2017-05-03T19:28:26.869Z,48.50
2017-05-03T19:30:54.678Z,48.50
2017-05-03T19:33:22.084Z,48.70
2017-05-03T19:35:49.096Z,48.80
2017-05-03T19:38:16.128Z,49.40
2017-05-03T19:40:43.527Z,49.20
2017-05-03T19:43:10.500Z,49.90
2017-05-03T19:45:38.293Z,50.60
2017-05-03T19:48:05.776Z,50.20
2017-05-03T19:50:32.776Z,50.10
2017-05-03T19:52:59.813Z,50.20
2017-05-03T19:55:27.156Z,50.30
2017-05-03T19:57:54.201Z,50.80
2017-05-03T20:00:21.253Z,49.60
2017-05-03T20:02:48.578Z,49.60
2017-05-03T20:05:15.696Z,50.10
2017-05-03T20:07:42.731Z,50.60
2017-05-03T20:10:11.797Z,50.50
2017-05-03T20:12:38.852Z,50.60
2017-05-03T20:15:05.928Z,50.70
2017-05-03T20:17:34.095Z,51.10
2017-05-03T20:20:01.265Z,51.30
2017-05-03T20:22:28.449Z,51.30
2017-05-03T20:24:55.953Z,51.70
2017-05-03T20:27:23.082Z,52.00
2017-05-03T20:29:50.176Z,51.90
2017-05-03T20:32:17.791Z,53.50
2017-05-03T20:34:44.822Z,53.60
2017-05-03T20:37:11.861Z,52.40
2017-05-03T20:39:39.235Z,52.30
2017-05-03T20:42:07.024Z,53.00
2017-05-03T20:44:34.037Z,53.20
2017-05-03T20:47:01.406Z,52.10
2017-05-03T20:49:28.521Z,51.80
2017-05-03T20:51:55.527Z,51.70
2017-05-03T20:54:22.955Z,52.10
2017-05-03T20:56:50.055Z,51.70
2017-05-03T20:59:17.149Z,51.30
2017-05-03T21:01:44.459Z,51.30
2017-05-03T21:04:11.481Z,51.60
2017-05-03T21:06:38.514Z,52.40
2017-05-03T21:09:05.843Z,52.00
2017-05-03T21:11:32.851Z,52.30
2017-05-03T21:13:59.864Z,52.40
2017-05-03T21:16:27.900Z,53.10
2017-05-03T21:18:54.925Z,53.40
2017-05-03T21:21:21.931Z,53.80
2017-05-03T21:23:50.070Z,53.60
2017-05-03T21:26:17.095Z,53.40
2017-05-03T21:28:44.102Z,53.50
2017-05-03T21:31:12.241Z,54.10
2017-05-03T21:33:39.668Z,54.30
2017-05-03T21:36:06.664Z,54.30
2017-05-03T21:38:34.894Z,54.50
2017-05-03T21:41:01.924Z,54.40
2017-05-03T21:43:28.993Z,54.40
2017-05-03T21:45:56.333Z,54.60
2017-05-03T21:48:23.329Z,54.80
2017-05-03T21:50:50.364Z,54.60
2017-05-03T21:53:17.747Z,55.30
2017-05-03T21:55:44.766Z,55.40
2017-05-03T21:58:11.768Z,55.10
2017-05-03T22:00:39.069Z,54.00
2017-05-03T22:03:06.081Z,55.00
2017-05-03T22:05:33.066Z,55.60
2017-05-03T22:08:00.356Z,55.30
2017-05-03T22:10:28.125Z,55.60
2017-05-03T22:12:55.112Z,55.80
2017-05-03T22:15:22.503Z,56.10
2017-05-03T22:17:49.551Z,56.60
2017-05-03T22:20:16.599Z,56.20
2017-05-03T22:22:43.948Z,56.80
2017-05-03T22:25:10.944Z,57.20
2017-05-03T22:27:38.443Z,57.10
2017-05-03T22:30:05.800Z,57.30
2017-05-03T22:32:32.829Z,57.60
2017-05-03T22:34:59.854Z,57.00
2017-05-03T22:37:27.252Z,57.00
2017-05-03T22:39:54.221Z,56.70
2017-05-03T22:42:21.238Z,57.10
2017-05-03T22:44:48.624Z,57.20
2017-05-03T22:47:15.606Z,56.60
2017-05-03T22:49:42.629Z,56.80
2017-05-03T22:52:09.939Z,56.50
2017-05-03T22:54:36.941Z,56.50
2017-05-03T22:57:03.958Z,56.90
2017-05-03T22:59:31.413Z,56.80
2017-05-03T23:01:58.432Z,57.10
2017-05-03T23:04:25.428Z,57.60
2017-05-03T23:06:52.742Z,58.00
2017-05-03T23:09:19.746Z,58.30
2017-05-03T23:11:46.745Z,57.90
2017-05-03T23:14:14.109Z,57.50
2017-05-03T23:16:41.192Z,57.70
2017-05-03T23:19:08.932Z,57.80
2017-05-03T23:21:36.261Z,57.90
2017-05-03T23:24:03.290Z,57.60
2017-05-03T23:26:30.301Z,57.30
2017-05-03T23:28:57.625Z,57.10
2017-05-03T23:31:24.613Z,58.00
2017-05-03T23:33:51.625Z,58.20
2017-05-03T23:36:18.952Z,58.50
2017-05-03T23:38:45.955Z,58.90
2017-05-03T23:41:13.719Z,58.50
2017-05-03T23:43:41.833Z,58.30
2017-05-03T23:46:08.838Z,57.90
2017-05-03T23:48:36.603Z,57.90
2017-05-03T23:51:03.908Z,57.80
2017-05-03T23:53:30.909Z,58.30
2017-05-03T23:55:58.663Z,58.40
2017-05-03T23:58:25.989Z,58.70
